sensor_id;sensor_type;location;lat;lon;timestamp;temperature;humidity
16271;DHT22;8243;49.048;8.396;2023-11-21T00:00:10;9.80;99.90
16271;DHT22;8243;49.048;8.396;2023-11-21T00:02:37;9.80;99.90
16271;DHT22;8243;49.048;8.396;2023-11-21T00:05:06;9.80;99.90
16271;DHT22;8243;49.048;8.396;2023-11-21T00:07:33;9.80;99.90
16271;DHT22;8243;49.048;8.396;2023-11-21T00:09:59;9.80;99.90
16271;DHT22;8243;49.048;8.396;2023-11-21T00:12:24;9.80;99.90
16271;DHT22;8243;49.048;8.396;2023-11-21T00:14:50;9.70;99.90
16271;DHT22;8243;49.048;8.396;2023-11-21T00:17:16;9.70;99.90
16271;DHT22;8243;49.048;8.396;2023-11-21T00:19:41;9.70;99.90
16271;DHT22;8243;49.048;8.396;2023-11-21T00:22:08;9.70;99.90
16271;DHT22;8243;49.048;8.396;2023-11-21T00:24:34;9.70;99.90
16271;DHT22;8243;49.048;8.396;2023-11-21T00:27:00;9.70;99.90
16271;DHT22;8243;49.048;8.396;2023-11-21T00:29:26;9.60;99.90
16271;DHT22;8243;49.048;8.396;2023-11-21T00:31:51;9.60;99.90
16271;DHT22;8243;49.048;8.396;2023-11-21T00:34:17;9.60;99.90
16271;DHT22;8243;49.048;8.396;2023-11-21T00:36:42;9.60;99.90
16271;DHT22;8243;49.048;8.396;2023-11-21T00:39:08;9.60;99.90
16271;DHT22;8243;49.048;8.396;2023-11-21T00:41:34;9.60;99.90
16271;DHT22;8243;49.048;8.396;2023-11-21T00:44:01;9.60;99.90
16271;DHT22;8243;49.048;8.396;2023-11-21T00:46:27;9.60;99.90
16271;DHT22;8243;49.048;8.396;2023-11-21T00:48:54;9.60;99.90
16271;DHT22;8243;49.048;8.396;2023-11-21T00:51:20;9.70;99.90
16271;DHT22;8243;49.048;8.396;2023-11-21T00:53:47;9.60;99.90
16271;DHT22;8243;49.048;8.396;2023-11-21T00:56:13;9.70;99.90
16271;DHT22;8243;49.048;8.396;2023-11-21T00:58:39;9.70;99.90
16271;DHT22;8243;49.048;8.396;2023-11-21T01:01:08;9.70;99.90
16271;DHT22;8243;49.048;8.396;2023-11-21T01:03:33;9.70;99.90
16271;DHT22;8243;49.048;8.396;2023-11-21T01:05:59;9.70;99.90
16271;DHT22;8243;49.048;8.396;2023-11-21T01:08:24;9.80;99.90
16271;DHT22;8243;49.048;8.396;2023-11-21T01:10:50;9.80;99.90
16271;DHT22;8243;49.048;8.396;2023-11-21T01:13:15;9.80;99.90
16271;DHT22;8243;49.048;8.396;2023-11-21T01:15:42;9.80;99.90
16271;DHT22;8243;49.048;8.396;2023-11-21T01:18:08;9.80;99.90
16271;DHT22;8243;49.048;8.396;2023-11-21T01:20:34;9.80;99.90
16271;DHT22;8243;49.048;8.396;2023-11-21T01:23:00;9.80;99.90
16271;DHT22;8243;49.048;8.396;2023-11-21T01:25:25;9.80;99.90
16271;DHT22;8243;49.048;8.396;2023-11-21T01:27:51;9.80;99.90
16271;DHT22;8243;49.048;8.396;2023-11-21T01:30:17;9.80;99.90
16271;DHT22;8243;49.048;8.396;2023-11-21T01:32:43;9.80;99.90
16271;DHT22;8243;49.048;8.396;2023-11-21T01:35:09;9.80;99.90
16271;DHT22;8243;49.048;8.396;2023-11-21T01:37:36;9.80;99.90
16271;DHT22;8243;49.048;8.396;2023-11-21T01:40:02;9.80;99.90
16271;DHT22;8243;49.048;8.396;2023-11-21T01:42:30;9.80;99.90
16271;DHT22;8243;49.048;8.396;2023-11-21T01:44:56;9.80;99.90
16271;DHT22;8243;49.048;8.396;2023-11-21T01:47:21;9.80;99.90
16271;DHT22;8243;49.048;8.396;2023-11-21T01:49:47;9.80;99.90
16271;DHT22;8243;49.048;8.396;2023-11-21T01:52:13;9.70;99.90
16271;DHT22;8243;49.048;8.396;2023-11-21T01:54:41;9.70;99.90
16271;DHT22;8243;49.048;8.396;2023-11-21T01:57:07;9.70;99.90
16271;DHT22;8243;49.048;8.396;2023-11-21T01:59:37;9.70;99.90
16271;DHT22;8243;49.048;8.396;2023-11-21T02:02:06;9.70;99.90
16271;DHT22;8243;49.048;8.396;2023-11-21T02:04:36;9.70;99.90
16271;DHT22;8243;49.048;8.396;2023-11-21T02:07:02;9.70;99.90
16271;DHT22;8243;49.048;8.396;2023-11-21T02:09:31;9.70;99.90
16271;DHT22;8243;49.048;8.396;2023-11-21T02:11:58;9.60;99.90
16271;DHT22;8243;49.048;8.396;2023-11-21T02:14:25;9.60;99.90
16271;DHT22;8243;49.048;8.396;2023-11-21T02:16:52;9.50;99.90
16271;DHT22;8243;49.048;8.396;2023-11-21T02:19:20;9.50;99.90
16271;DHT22;8243;49.048;8.396;2023-11-21T02:21:51;9.50;99.90
16271;DHT22;8243;49.048;8.396;2023-11-21T02:24:19;9.40;99.90
16271;DHT22;8243;49.048;8.396;2023-11-21T02:26:45;9.40;99.90
16271;DHT22;8243;49.048;8.396;2023-11-21T02:29:11;9.40;99.90
16271;DHT22;8243;49.048;8.396;2023-11-21T02:31:38;9.40;99.90
16271;DHT22;8243;49.048;8.396;2023-11-21T02:34:16;9.30;99.90
16271;DHT22;8243;49.048;8.396;2023-11-21T02:36:45;9.30;99.90
16271;DHT22;8243;49.048;8.396;2023-11-21T02:39:11;9.40;99.90
16271;DHT22;8243;49.048;8.396;2023-11-21T02:41:37;9.40;99.90
16271;DHT22;8243;49.048;8.396;2023-11-21T02:44:04;9.30;99.90
16271;DHT22;8243;49.048;8.396;2023-11-21T02:46:32;9.30;99.90
16271;DHT22;8243;49.048;8.396;2023-11-21T02:48:59;9.30;99.90
16271;DHT22;8243;49.048;8.396;2023-11-21T02:51:25;9.30;99.90
16271;DHT22;8243;49.048;8.396;2023-11-21T02:53:50;9.30;99.90
16271;DHT22;8243;49.048;8.396;2023-11-21T02:56:16;9.30;99.90
16271;DHT22;8243;49.048;8.396;2023-11-21T02:58:42;9.30;99.90
16271;DHT22;8243;49.048;8.396;2023-11-21T03:01:09;9.30;99.90
16271;DHT22;8243;49.048;8.396;2023-11-21T03:03:36;9.30;99.90
16271;DHT22;8243;49.048;8.396;2023-11-21T03:06:04;9.30;99.90
16271;DHT22;8243;49.048;8.396;2023-11-21T03:08:30;9.30;99.90
16271;DHT22;8243;49.048;8.396;2023-11-21T03:10:55;9.20;99.90
16271;DHT22;8243;49.048;8.396;2023-11-21T03:13:21;9.20;99.90
16271;DHT22;8243;49.048;8.396;2023-11-21T03:15:46;9.20;99.90
16271;DHT22;8243;49.048;8.396;2023-11-21T03:18:12;9.20;99.90
16271;DHT22;8243;49.048;8.396;2023-11-21T03:20:38;9.20;99.90
16271;DHT22;8243;49.048;8.396;2023-11-21T03:23:04;9.20;99.90
16271;DHT22;8243;49.048;8.396;2023-11-21T03:25:30;9.20;99.90
16271;DHT22;8243;49.048;8.396;2023-11-21T03:27:56;9.20;99.90
16271;DHT22;8243;49.048;8.396;2023-11-21T03:30:22;9.20;99.90
16271;DHT22;8243;49.048;8.396;2023-11-21T03:32:47;9.20;99.90
16271;DHT22;8243;49.048;8.396;2023-11-21T03:35:13;9.20;99.90
16271;DHT22;8243;49.048;8.396;2023-11-21T03:37:39;9.20;99.90
16271;DHT22;8243;49.048;8.396;2023-11-21T03:40:07;9.20;99.90
16271;DHT22;8243;49.048;8.396;2023-11-21T03:42:34;9.20;99.90
16271;DHT22;8243;49.048;8.396;2023-11-21T03:45:00;9.20;99.90
16271;DHT22;8243;49.048;8.396;2023-11-21T03:47:27;9.20;99.90
16271;DHT22;8243;49.048;8.396;2023-11-21T03:49:53;9.20;99.90
16271;DHT22;8243;49.048;8.396;2023-11-21T03:52:18;9.20;99.90
16271;DHT22;8243;49.048;8.396;2023-11-21T03:54:44;9.20;99.90
16271;DHT22;8243;49.048;8.396;2023-11-21T03:57:11;9.20;99.90
16271;DHT22;8243;49.048;8.396;2023-11-21T03:59:39;9.20;99.90
16271;DHT22;8243;49.048;8.396;2023-11-21T04:02:05;9.30;99.90
16271;DHT22;8243;49.048;8.396;2023-11-21T04:04:31;9.30;99.90
16271;DHT22;8243;49.048;8.396;2023-11-21T04:06:56;9.20;99.90
16271;DHT22;8243;49.048;8.396;2023-11-21T04:09:22;9.30;99.90
16271;DHT22;8243;49.048;8.396;2023-11-21T04:11:51;9.20;99.90
16271;DHT22;8243;49.048;8.396;2023-11-21T04:14:16;9.20;99.90
16271;DHT22;8243;49.048;8.396;2023-11-21T04:16:42;9.20;99.90
16271;DHT22;8243;49.048;8.396;2023-11-21T04:19:08;9.20;99.90
16271;DHT22;8243;49.048;8.396;2023-11-21T04:21:38;9.20;99.90
16271;DHT22;8243;49.048;8.396;2023-11-21T04:24:04;9.20;99.90
16271;DHT22;8243;49.048;8.396;2023-11-21T04:26:30;9.30;99.90
16271;DHT22;8243;49.048;8.396;2023-11-21T04:28:56;9.30;99.90
16271;DHT22;8243;49.048;8.396;2023-11-21T04:31:21;9.30;99.90
16271;DHT22;8243;49.048;8.396;2023-11-21T04:33:47;9.30;99.90
16271;DHT22;8243;49.048;8.396;2023-11-21T04:36:12;9.30;99.90
16271;DHT22;8243;49.048;8.396;2023-11-21T04:38:38;9.30;99.90
16271;DHT22;8243;49.048;8.396;2023-11-21T04:41:04;9.30;99.90
16271;DHT22;8243;49.048;8.396;2023-11-21T04:43:30;9.30;99.90
16271;DHT22;8243;49.048;8.396;2023-11-21T04:45:55;9.40;99.90
16271;DHT22;8243;49.048;8.396;2023-11-21T04:48:21;9.30;99.90
16271;DHT22;8243;49.048;8.396;2023-11-21T04:50:46;9.30;99.90
16271;DHT22;8243;49.048;8.396;2023-11-21T04:53:12;9.30;99.90
16271;DHT22;8243;49.048;8.396;2023-11-21T04:55:40;9.30;99.90
16271;DHT22;8243;49.048;8.396;2023-11-21T04:58:07;9.30;99.90
16271;DHT22;8243;49.048;8.396;2023-11-21T05:00:33;9.30;99.90
16271;DHT22;8243;49.048;8.396;2023-11-21T05:02:59;9.30;99.90
16271;DHT22;8243;49.048;8.396;2023-11-21T05:05:26;9.30;99.90
16271;DHT22;8243;49.048;8.396;2023-11-21T05:07:52;9.30;99.90
16271;DHT22;8243;49.048;8.396;2023-11-21T05:10:19;9.30;99.90
16271;DHT22;8243;49.048;8.396;2023-11-21T05:12:44;9.30;99.90
16271;DHT22;8243;49.048;8.396;2023-11-21T05:15:13;9.30;99.90
16271;DHT22;8243;49.048;8.396;2023-11-21T05:17:40;9.30;99.90
16271;DHT22;8243;49.048;8.396;2023-11-21T05:20:10;9.30;99.90
16271;DHT22;8243;49.048;8.396;2023-11-21T05:22:37;9.30;99.90
16271;DHT22;8243;49.048;8.396;2023-11-21T05:25:03;9.30;99.90
16271;DHT22;8243;49.048;8.396;2023-11-21T05:27:31;9.40;99.90
16271;DHT22;8243;49.048;8.396;2023-11-21T05:29:57;9.40;99.90
16271;DHT22;8243;49.048;8.396;2023-11-21T05:32:26;9.30;99.90
16271;DHT22;8243;49.048;8.396;2023-11-21T05:34:52;9.30;99.90
16271;DHT22;8243;49.048;8.396;2023-11-21T05:37:18;9.40;99.90
16271;DHT22;8243;49.048;8.396;2023-11-21T05:39:44;9.30;99.90
16271;DHT22;8243;49.048;8.396;2023-11-21T05:42:09;9.30;99.90
16271;DHT22;8243;49.048;8.396;2023-11-21T05:44:41;9.40;99.90
16271;DHT22;8243;49.048;8.396;2023-11-21T05:47:07;9.40;99.90
16271;DHT22;8243;49.048;8.396;2023-11-21T05:49:32;9.40;99.90
16271;DHT22;8243;49.048;8.396;2023-11-21T05:51:59;9.40;99.90
16271;DHT22;8243;49.048;8.396;2023-11-21T05:54:25;9.30;99.90
16271;DHT22;8243;49.048;8.396;2023-11-21T05:56:51;9.30;99.90
16271;DHT22;8243;49.048;8.396;2023-11-21T05:59:17;9.30;99.90
16271;DHT22;8243;49.048;8.396;2023-11-21T06:01:42;9.30;99.90
16271;DHT22;8243;49.048;8.396;2023-11-21T06:04:08;9.30;99.90
16271;DHT22;8243;49.048;8.396;2023-11-21T06:06:35;9.40;99.90
16271;DHT22;8243;49.048;8.396;2023-11-21T06:09:01;9.40;99.90
16271;DHT22;8243;49.048;8.396;2023-11-21T06:11:27;9.30;99.90
16271;DHT22;8243;49.048;8.396;2023-11-21T06:13:52;9.30;99.90
16271;DHT22;8243;49.048;8.396;2023-11-21T06:16:21;9.30;99.90
16271;DHT22;8243;49.048;8.396;2023-11-21T06:18:46;9.40;99.90
16271;DHT22;8243;49.048;8.396;2023-11-21T06:21:12;9.30;99.90
16271;DHT22;8243;49.048;8.396;2023-11-21T06:23:39;9.30;99.90
16271;DHT22;8243;49.048;8.396;2023-11-21T06:26:05;9.30;99.90
16271;DHT22;8243;49.048;8.396;2023-11-21T06:28:31;9.30;99.90
16271;DHT22;8243;49.048;8.396;2023-11-21T06:30:57;9.30;99.90
16271;DHT22;8243;49.048;8.396;2023-11-21T06:33:33;9.40;99.90
16271;DHT22;8243;49.048;8.396;2023-11-21T06:35:59;9.40;99.90
16271;DHT22;8243;49.048;8.396;2023-11-21T06:38:28;9.30;99.90
16271;DHT22;8243;49.048;8.396;2023-11-21T06:40:55;9.30;99.90
16271;DHT22;8243;49.048;8.396;2023-11-21T06:43:21;9.40;99.90
16271;DHT22;8243;49.048;8.396;2023-11-21T06:45:47;9.40;99.90
16271;DHT22;8243;49.048;8.396;2023-11-21T06:48:13;9.40;99.90
16271;DHT22;8243;49.048;8.396;2023-11-21T06:50:38;9.40;99.90
16271;DHT22;8243;49.048;8.396;2023-11-21T06:53:04;9.40;99.90
16271;DHT22;8243;49.048;8.396;2023-11-21T06:55:32;9.40;99.90
16271;DHT22;8243;49.048;8.396;2023-11-21T06:57:58;9.40;99.90
16271;DHT22;8243;49.048;8.396;2023-11-21T07:00:25;9.40;99.90
16271;DHT22;8243;49.048;8.396;2023-11-21T07:02:53;9.40;99.90
16271;DHT22;8243;49.048;8.396;2023-11-21T07:05:21;9.40;99.90
16271;DHT22;8243;49.048;8.396;2023-11-21T07:07:47;9.40;99.90
16271;DHT22;8243;49.048;8.396;2023-11-21T07:10:14;9.40;99.90
16271;DHT22;8243;49.048;8.396;2023-11-21T07:12:40;9.40;99.90
16271;DHT22;8243;49.048;8.396;2023-11-21T07:15:06;9.40;99.90
16271;DHT22;8243;49.048;8.396;2023-11-21T07:17:35;9.50;99.90
16271;DHT22;8243;49.048;8.396;2023-11-21T07:20:01;9.40;99.90
16271;DHT22;8243;49.048;8.396;2023-11-21T07:22:27;9.50;99.90
16271;DHT22;8243;49.048;8.396;2023-11-21T07:24:52;9.50;99.90
16271;DHT22;8243;49.048;8.396;2023-11-21T07:27:18;9.50;99.90
16271;DHT22;8243;49.048;8.396;2023-11-21T07:29:44;9.50;99.90
16271;DHT22;8243;49.048;8.396;2023-11-21T07:32:10;9.50;99.90
16271;DHT22;8243;49.048;8.396;2023-11-21T07:34:36;9.40;99.90
16271;DHT22;8243;49.048;8.396;2023-11-21T07:37:02;9.50;99.90
16271;DHT22;8243;49.048;8.396;2023-11-21T07:39:28;9.50;99.90
16271;DHT22;8243;49.048;8.396;2023-11-21T07:41:54;9.50;99.90
16271;DHT22;8243;49.048;8.396;2023-11-21T07:44:19;9.50;99.90
16271;DHT22;8243;49.048;8.396;2023-11-21T07:46:45;9.50;99.90
16271;DHT22;8243;49.048;8.396;2023-11-21T07:49:11;9.50;99.90
16271;DHT22;8243;49.048;8.396;2023-11-21T07:51:40;9.60;99.90
16271;DHT22;8243;49.048;8.396;2023-11-21T07:54:05;9.50;99.90
16271;DHT22;8243;49.048;8.396;2023-11-21T07:56:31;9.50;99.90
16271;DHT22;8243;49.048;8.396;2023-11-21T07:58:56;9.60;99.90
16271;DHT22;8243;49.048;8.396;2023-11-21T08:01:22;9.50;99.90
16271;DHT22;8243;49.048;8.396;2023-11-21T08:03:47;9.50;99.90
16271;DHT22;8243;49.048;8.396;2023-11-21T08:06:17;9.60;99.90
16271;DHT22;8243;49.048;8.396;2023-11-21T08:08:42;9.70;99.90
16271;DHT22;8243;49.048;8.396;2023-11-21T08:11:08;9.70;99.90
16271;DHT22;8243;49.048;8.396;2023-11-21T08:13:36;9.80;99.90
16271;DHT22;8243;49.048;8.396;2023-11-21T08:16:01;9.80;99.90
16271;DHT22;8243;49.048;8.396;2023-11-21T08:18:29;9.80;99.90
16271;DHT22;8243;49.048;8.396;2023-11-21T08:20:55;9.90;99.90
16271;DHT22;8243;49.048;8.396;2023-11-21T08:23:22;9.90;99.90
16271;DHT22;8243;49.048;8.396;2023-11-21T08:25:56;9.90;99.90
16271;DHT22;8243;49.048;8.396;2023-11-21T08:28:22;10.00;99.90
16271;DHT22;8243;49.048;8.396;2023-11-21T08:30:51;10.00;99.90
16271;DHT22;8243;49.048;8.396;2023-11-21T08:33:17;10.00;99.90
16271;DHT22;8243;49.048;8.396;2023-11-21T08:35:43;9.90;99.90
16271;DHT22;8243;49.048;8.396;2023-11-21T08:38:09;10.00;99.90
16271;DHT22;8243;49.048;8.396;2023-11-21T08:40:35;10.10;99.90
16271;DHT22;8243;49.048;8.396;2023-11-21T08:43:01;10.10;99.90
16271;DHT22;8243;49.048;8.396;2023-11-21T08:45:30;10.10;99.90
16271;DHT22;8243;49.048;8.396;2023-11-21T08:47:55;10.10;99.90
16271;DHT22;8243;49.048;8.396;2023-11-21T08:50:21;10.20;99.90
16271;DHT22;8243;49.048;8.396;2023-11-21T08:52:48;10.20;99.90
16271;DHT22;8243;49.048;8.396;2023-11-21T08:55:14;10.20;99.90
16271;DHT22;8243;49.048;8.396;2023-11-21T08:57:41;10.20;99.90
16271;DHT22;8243;49.048;8.396;2023-11-21T09:00:08;10.10;99.90
16271;DHT22;8243;49.048;8.396;2023-11-21T09:02:40;10.20;99.90
16271;DHT22;8243;49.048;8.396;2023-11-21T09:05:08;10.20;99.90
16271;DHT22;8243;49.048;8.396;2023-11-21T09:07:34;10.10;99.90
16271;DHT22;8243;49.048;8.396;2023-11-21T09:10:01;10.10;99.90
16271;DHT22;8243;49.048;8.396;2023-11-21T09:12:26;10.00;99.90
16271;DHT22;8243;49.048;8.396;2023-11-21T09:14:52;10.00;99.90
16271;DHT22;8243;49.048;8.396;2023-11-21T09:17:17;10.00;99.90
16271;DHT22;8243;49.048;8.396;2023-11-21T09:19:44;10.00;99.90
16271;DHT22;8243;49.048;8.396;2023-11-21T09:22:12;10.00;99.90
16271;DHT22;8243;49.048;8.396;2023-11-21T09:24:38;10.00;99.90
16271;DHT22;8243;49.048;8.396;2023-11-21T09:27:03;10.10;99.90
16271;DHT22;8243;49.048;8.396;2023-11-21T09:29:30;10.00;99.90
16271;DHT22;8243;49.048;8.396;2023-11-21T09:31:57;10.10;99.90
16271;DHT22;8243;49.048;8.396;2023-11-21T09:34:25;10.10;99.90
16271;DHT22;8243;49.048;8.396;2023-11-21T09:36:51;10.00;99.90
16271;DHT22;8243;49.048;8.396;2023-11-21T09:39:17;10.00;99.90
16271;DHT22;8243;49.048;8.396;2023-11-21T09:41:50;9.90;99.90
16271;DHT22;8243;49.048;8.396;2023-11-21T09:44:29;9.80;99.90
16271;DHT22;8243;49.048;8.396;2023-11-21T09:46:59;9.80;99.90
16271;DHT22;8243;49.048;8.396;2023-11-21T09:49:26;9.80;99.90
16271;DHT22;8243;49.048;8.396;2023-11-21T09:51:55;9.90;99.90
16271;DHT22;8243;49.048;8.396;2023-11-21T09:54:21;9.90;99.90
16271;DHT22;8243;49.048;8.396;2023-11-21T09:56:47;9.90;99.90
16271;DHT22;8243;49.048;8.396;2023-11-21T09:59:15;9.90;99.90
16271;DHT22;8243;49.048;8.396;2023-11-21T10:01:41;9.90;99.90
16271;DHT22;8243;49.048;8.396;2023-11-21T10:04:10;9.90;99.90
16271;DHT22;8243;49.048;8.396;2023-11-21T10:06:40;10.00;99.90
16271;DHT22;8243;49.048;8.396;2023-11-21T10:09:09;9.90;99.90
16271;DHT22;8243;49.048;8.396;2023-11-21T10:11:39;9.90;99.90
16271;DHT22;8243;49.048;8.396;2023-11-21T10:14:07;9.90;99.90
16271;DHT22;8243;49.048;8.396;2023-11-21T10:16:36;10.00;99.90
16271;DHT22;8243;49.048;8.396;2023-11-21T10:19:03;10.10;99.90
16271;DHT22;8243;49.048;8.396;2023-11-21T10:21:30;10.10;99.90
16271;DHT22;8243;49.048;8.396;2023-11-21T10:23:56;10.00;99.90
16271;DHT22;8243;49.048;8.396;2023-11-21T10:26:23;10.00;99.90
16271;DHT22;8243;49.048;8.396;2023-11-21T10:28:59;10.10;99.90
16271;DHT22;8243;49.048;8.396;2023-11-21T10:31:27;10.10;99.90
16271;DHT22;8243;49.048;8.396;2023-11-21T10:33:53;10.10;99.90
16271;DHT22;8243;49.048;8.396;2023-11-21T10:36:28;10.00;99.90
16271;DHT22;8243;49.048;8.396;2023-11-21T10:38:54;9.90;99.90
16271;DHT22;8243;49.048;8.396;2023-11-21T10:41:20;9.90;99.90
16271;DHT22;8243;49.048;8.396;2023-11-21T10:43:46;9.90;99.90
16271;DHT22;8243;49.048;8.396;2023-11-21T10:46:13;9.90;99.90
16271;DHT22;8243;49.048;8.396;2023-11-21T10:48:44;9.90;99.90
16271;DHT22;8243;49.048;8.396;2023-11-21T10:51:09;10.00;99.90
16271;DHT22;8243;49.048;8.396;2023-11-21T10:53:39;10.10;99.90
16271;DHT22;8243;49.048;8.396;2023-11-21T10:56:08;10.20;99.90
16271;DHT22;8243;49.048;8.396;2023-11-21T10:58:37;10.20;99.90
16271;DHT22;8243;49.048;8.396;2023-11-21T11:01:06;10.30;99.90
16271;DHT22;8243;49.048;8.396;2023-11-21T11:03:32;10.40;99.90
16271;DHT22;8243;49.048;8.396;2023-11-21T11:06:00;10.30;99.90
16271;DHT22;8243;49.048;8.396;2023-11-21T11:08:26;10.30;99.90
16271;DHT22;8243;49.048;8.396;2023-11-21T11:10:53;10.20;99.90
16271;DHT22;8243;49.048;8.396;2023-11-21T11:13:18;10.20;99.90
16271;DHT22;8243;49.048;8.396;2023-11-21T11:15:47;10.20;99.90
16271;DHT22;8243;49.048;8.396;2023-11-21T11:18:14;10.10;99.90
16271;DHT22;8243;49.048;8.396;2023-11-21T11:20:42;10.00;99.90
16271;DHT22;8243;49.048;8.396;2023-11-21T11:28:49;10.10;99.90
16271;DHT22;8243;49.048;8.396;2023-11-21T11:34:27;10.10;99.90
16271;DHT22;8243;49.048;8.396;2023-11-21T11:39:36;10.00;99.90
16271;DHT22;8243;49.048;8.396;2023-11-21T11:42:03;10.10;99.90
16271;DHT22;8243;49.048;8.396;2023-11-21T11:50:10;10.10;99.90
16271;DHT22;8243;49.048;8.396;2023-11-21T11:52:43;10.10;99.90
16271;DHT22;8243;49.048;8.396;2023-11-21T11:55:11;10.10;99.90
16271;DHT22;8243;49.048;8.396;2023-11-21T11:57:38;10.10;99.90
16271;DHT22;8243;49.048;8.396;2023-11-21T12:00:18;10.20;99.90
16271;DHT22;8243;49.048;8.396;2023-11-21T12:02:47;10.20;99.90
16271;DHT22;8243;49.048;8.396;2023-11-21T12:05:18;10.20;99.90
16271;DHT22;8243;49.048;8.396;2023-11-21T12:07:53;10.20;99.90
16271;DHT22;8243;49.048;8.396;2023-11-21T12:10:24;10.20;99.90
16271;DHT22;8243;49.048;8.396;2023-11-21T12:12:52;10.20;99.90
16271;DHT22;8243;49.048;8.396;2023-11-21T12:15:19;10.20;99.90
16271;DHT22;8243;49.048;8.396;2023-11-21T12:17:45;10.20;99.90
16271;DHT22;8243;49.048;8.396;2023-11-21T12:20:12;10.10;99.90
16271;DHT22;8243;49.048;8.396;2023-11-21T12:22:47;10.10;99.90
16271;DHT22;8243;49.048;8.396;2023-11-21T12:25:17;10.10;99.90
16271;DHT22;8243;49.048;8.396;2023-11-21T12:27:47;10.10;99.90
16271;DHT22;8243;49.048;8.396;2023-11-21T12:30:15;10.20;99.90
16271;DHT22;8243;49.048;8.396;2023-11-21T12:32:43;10.30;99.90
16271;DHT22;8243;49.048;8.396;2023-11-21T12:35:10;10.30;99.90
16271;DHT22;8243;49.048;8.396;2023-11-21T12:37:39;10.20;99.90
16271;DHT22;8243;49.048;8.396;2023-11-21T12:40:08;10.30;99.90
16271;DHT22;8243;49.048;8.396;2023-11-21T12:42:39;10.30;99.90
16271;DHT22;8243;49.048;8.396;2023-11-21T12:45:22;10.30;99.90
16271;DHT22;8243;49.048;8.396;2023-11-21T12:47:51;10.30;99.90
16271;DHT22;8243;49.048;8.396;2023-11-21T12:50:25;10.30;99.90
16271;DHT22;8243;49.048;8.396;2023-11-21T12:52:57;10.30;99.90
16271;DHT22;8243;49.048;8.396;2023-11-21T12:55:24;10.40;99.90
16271;DHT22;8243;49.048;8.396;2023-11-21T12:57:53;10.30;99.90
16271;DHT22;8243;49.048;8.396;2023-11-21T13:00:31;10.40;99.90
16271;DHT22;8243;49.048;8.396;2023-11-21T13:02:58;10.50;99.90
16271;DHT22;8243;49.048;8.396;2023-11-21T13:05:26;10.50;99.90
16271;DHT22;8243;49.048;8.396;2023-11-21T13:07:52;10.50;99.90
16271;DHT22;8243;49.048;8.396;2023-11-21T13:10:30;10.60;99.90
16271;DHT22;8243;49.048;8.396;2023-11-21T13:13:00;10.50;99.90
16271;DHT22;8243;49.048;8.396;2023-11-21T13:15:29;10.40;99.90
16271;DHT22;8243;49.048;8.396;2023-11-21T13:17:57;10.40;99.90
16271;DHT22;8243;49.048;8.396;2023-11-21T13:20:23;10.40;99.90
16271;DHT22;8243;49.048;8.396;2023-11-21T13:25:18;10.50;99.90
16271;DHT22;8243;49.048;8.396;2023-11-21T13:27:44;10.60;99.90
16271;DHT22;8243;49.048;8.396;2023-11-21T13:30:12;10.60;99.90
16271;DHT22;8243;49.048;8.396;2023-11-21T13:32:43;10.70;99.90
16271;DHT22;8243;49.048;8.396;2023-11-21T13:35:10;10.90;99.90
16271;DHT22;8243;49.048;8.396;2023-11-21T13:37:47;10.90;99.90
16271;DHT22;8243;49.048;8.396;2023-11-21T13:40:15;10.90;99.90
16271;DHT22;8243;49.048;8.396;2023-11-21T13:42:44;10.90;99.90
16271;DHT22;8243;49.048;8.396;2023-11-21T13:45:11;11.10;99.90
16271;DHT22;8243;49.048;8.396;2023-11-21T13:47:38;11.10;99.90
16271;DHT22;8243;49.048;8.396;2023-11-21T13:50:04;11.00;99.90
16271;DHT22;8243;49.048;8.396;2023-11-21T13:52:40;10.90;99.90
16271;DHT22;8243;49.048;8.396;2023-11-21T13:55:06;10.80;99.90
16271;DHT22;8243;49.048;8.396;2023-11-21T13:57:39;10.70;99.90
16271;DHT22;8243;49.048;8.396;2023-11-21T14:00:05;10.70;99.90
16271;DHT22;8243;49.048;8.396;2023-11-21T14:02:36;10.70;99.90
16271;DHT22;8243;49.048;8.396;2023-11-21T14:05:07;10.60;99.90
16271;DHT22;8243;49.048;8.396;2023-11-21T14:07:36;10.70;99.90
16271;DHT22;8243;49.048;8.396;2023-11-21T14:10:02;10.70;99.90
16271;DHT22;8243;49.048;8.396;2023-11-21T14:12:29;10.70;99.90
16271;DHT22;8243;49.048;8.396;2023-11-21T14:14:59;10.70;99.90
16271;DHT22;8243;49.048;8.396;2023-11-21T14:17:25;10.70;99.90
16271;DHT22;8243;49.048;8.396;2023-11-21T14:19:51;10.80;99.90
16271;DHT22;8243;49.048;8.396;2023-11-21T14:22:16;10.80;99.90
16271;DHT22;8243;49.048;8.396;2023-11-21T14:24:42;10.90;99.90
16271;DHT22;8243;49.048;8.396;2023-11-21T14:27:12;10.90;99.90
16271;DHT22;8243;49.048;8.396;2023-11-21T14:29:37;10.90;99.90
16271;DHT22;8243;49.048;8.396;2023-11-21T14:32:07;10.90;99.90
16271;DHT22;8243;49.048;8.396;2023-11-21T14:34:33;10.90;99.90
16271;DHT22;8243;49.048;8.396;2023-11-21T14:36:58;10.90;99.90
16271;DHT22;8243;49.048;8.396;2023-11-21T14:39:24;10.80;99.90
16271;DHT22;8243;49.048;8.396;2023-11-21T14:41:53;10.80;99.90
16271;DHT22;8243;49.048;8.396;2023-11-21T14:44:21;10.80;99.90
16271;DHT22;8243;49.048;8.396;2023-11-21T14:46:49;10.70;99.90
16271;DHT22;8243;49.048;8.396;2023-11-21T14:49:17;10.70;99.90
16271;DHT22;8243;49.048;8.396;2023-11-21T14:51:47;10.70;99.90
16271;DHT22;8243;49.048;8.396;2023-11-21T14:54:27;10.80;99.90
16271;DHT22;8243;49.048;8.396;2023-11-21T14:57:08;10.80;99.90
16271;DHT22;8243;49.048;8.396;2023-11-21T14:59:37;10.90;99.90
16271;DHT22;8243;49.048;8.396;2023-11-21T15:02:02;10.90;99.90
16271;DHT22;8243;49.048;8.396;2023-11-21T15:04:43;10.90;99.90
16271;DHT22;8243;49.048;8.396;2023-11-21T15:07:10;10.90;99.90
16271;DHT22;8243;49.048;8.396;2023-11-21T15:09:38;10.90;99.90
16271;DHT22;8243;49.048;8.396;2023-11-21T15:12:08;10.90;99.90
16271;DHT22;8243;49.048;8.396;2023-11-21T15:14:45;10.80;99.90
16271;DHT22;8243;49.048;8.396;2023-11-21T15:17:12;10.80;99.90
16271;DHT22;8243;49.048;8.396;2023-11-21T15:19:41;10.70;99.90
16271;DHT22;8243;49.048;8.396;2023-11-21T15:22:09;10.60;99.90
16271;DHT22;8243;49.048;8.396;2023-11-21T15:24:36;10.60;99.90
16271;DHT22;8243;49.048;8.396;2023-11-21T15:27:01;10.60;99.90
16271;DHT22;8243;49.048;8.396;2023-11-21T15:29:29;10.50;99.90
16271;DHT22;8243;49.048;8.396;2023-11-21T15:31:54;10.50;99.90
16271;DHT22;8243;49.048;8.396;2023-11-21T15:34:22;10.40;99.90
16271;DHT22;8243;49.048;8.396;2023-11-21T15:36:48;10.40;99.90
16271;DHT22;8243;49.048;8.396;2023-11-21T15:39:18;10.30;99.90
16271;DHT22;8243;49.048;8.396;2023-11-21T15:41:43;10.30;99.90
16271;DHT22;8243;49.048;8.396;2023-11-21T15:44:09;10.20;99.90
16271;DHT22;8243;49.048;8.396;2023-11-21T15:46:36;10.10;99.90
16271;DHT22;8243;49.048;8.396;2023-11-21T15:49:03;10.10;99.90
16271;DHT22;8243;49.048;8.396;2023-11-21T15:51:42;10.00;99.90
16271;DHT22;8243;49.048;8.396;2023-11-21T15:54:10;9.90;99.90
16271;DHT22;8243;49.048;8.396;2023-11-21T15:56:36;9.90;99.90
16271;DHT22;8243;49.048;8.396;2023-11-21T15:59:03;9.80;99.90
16271;DHT22;8243;49.048;8.396;2023-11-21T16:01:29;9.80;99.90
16271;DHT22;8243;49.048;8.396;2023-11-21T16:03:55;9.70;99.90
16271;DHT22;8243;49.048;8.396;2023-11-21T16:06:20;9.70;99.90
16271;DHT22;8243;49.048;8.396;2023-11-21T16:08:46;9.70;99.90
16271;DHT22;8243;49.048;8.396;2023-11-21T16:11:12;9.60;99.90
16271;DHT22;8243;49.048;8.396;2023-11-21T16:13:38;9.50;99.90